createdAt,value
2023-02-14T00:00:16.024Z,0
2023-02-14T00:01:16.403Z,0
2023-02-14T00:02:17.664Z,0
2023-02-14T00:03:18.477Z,0
2023-02-14T00:04:19.166Z,0
2023-02-14T00:05:19.255Z,0
2023-02-14T00:06:20.451Z,0
2023-02-14T00:07:21.365Z,0
2023-02-14T00:08:21.862Z,0
2023-02-14T00:09:21.866Z,0
2023-02-14T00:10:22.782Z,0
2023-02-14T00:11:23.075Z,0
2023-02-14T00:12:23.602Z,0
2023-02-14T00:13:23.863Z,0
2023-02-14T00:14:25.078Z,0
2023-02-14T00:15:25.657Z,0
2023-02-14T00:16:25.781Z,0
2023-02-14T00:17:25.507Z,0
2023-02-14T00:18:26.709Z,0
2023-02-14T00:19:27.446Z,0
2023-02-14T00:20:28.400Z,0
2023-02-14T00:21:28.319Z,0
2023-02-14T00:22:29.249Z,0
2023-02-14T00:23:30.735Z,0
2023-02-14T00:24:30.998Z,0
2023-02-14T00:25:31.199Z,0
2023-02-14T00:26:31.451Z,0
2023-02-14T00:27:31.379Z,0
2023-02-14T00:28:32.910Z,0
2023-02-14T00:29:32.979Z,0
2023-02-14T00:30:33.377Z,0
2023-02-14T00:31:34.403Z,0
2023-02-14T00:32:34.630Z,0
2023-02-14T00:33:34.864Z,0
2023-02-14T00:34:34.800Z,0
2023-02-14T00:35:35.137Z,0
2023-02-14T00:36:35.766Z,0
2023-02-14T00:37:36.685Z,0
2023-02-14T00:38:36.900Z,0
2023-02-14T00:39:37.513Z,0
2023-02-14T00:40:37.702Z,0
2023-02-14T00:41:37.686Z,0
2023-02-14T00:42:38.229Z,0
2023-02-14T00:43:38.200Z,0
2023-02-14T00:44:38.442Z,0
2023-02-14T00:45:39.418Z,0
2023-02-14T00:46:40.672Z,0
2023-02-14T00:47:40.345Z,0
2023-02-14T00:48:41.842Z,0
2023-02-14T00:49:42.133Z,0
2023-02-14T00:50:42.326Z,0
2023-02-14T00:51:41.931Z,0
2023-02-14T00:52:43.120Z,0
2023-02-14T00:53:44.041Z,0
2023-02-14T00:54:43.972Z,0
2023-02-14T00:55:45.275Z,0
2023-02-14T00:56:45.535Z,0
2023-02-14T00:57:45.460Z,0
2023-02-14T00:58:46.158Z,0
2023-02-14T00:59:46.800Z,0
2023-02-14T01:00:47.236Z,0
2023-02-14T01:01:47.857Z,0
2023-02-14T01:02:48.576Z,0
2023-02-14T01:03:49.046Z,0
2023-02-14T01:04:49.741Z,0
2023-02-14T01:05:49.646Z,0
2023-02-14T01:06:50.885Z,0
2023-02-14T01:07:52.090Z,0
2023-02-14T01:08:51.835Z,0
2023-02-14T01:09:52.278Z,0
2023-02-14T01:10:52.637Z,0
2023-02-14T01:11:53.308Z,0
2023-02-14T01:12:53.741Z,0
2023-02-14T01:13:54.054Z,0
2023-02-14T01:14:53.954Z,0
2023-02-14T01:15:54.582Z,0
2023-02-14T01:16:55.951Z,0
2023-02-14T01:17:55.933Z,0
2023-02-14T01:18:57.211Z,0
2023-02-14T01:19:58.008Z,0
2023-02-14T01:20:59.184Z,0
2023-02-14T01:21:59.928Z,0
2023-02-14T01:22:59.858Z,0
2023-02-14T01:24:00.218Z,0
2023-02-14T01:25:01.709Z,0
2023-02-14T01:26:02.259Z,0
2023-02-14T01:27:02.527Z,0
2023-02-14T01:28:02.473Z,0
2023-02-14T01:29:03.740Z,0
2023-02-14T01:30:04.009Z,0
2023-02-14T01:31:05.024Z,0
2023-02-14T01:32:05.947Z,0
2023-02-14T01:33:06.254Z,0
2023-02-14T01:34:07.179Z,0
2023-02-14T01:35:06.842Z,0
2023-02-14T01:36:07.774Z,0
2023-02-14T01:37:08.398Z,0
2023-02-14T01:38:09.306Z,0
2023-02-14T01:39:09.798Z,0
2023-02-14T01:40:10.055Z,0
2023-02-14T01:41:10.002Z,0
2023-02-14T01:42:10.569Z,0
2023-02-14T01:43:10.961Z,0
2023-02-14T01:44:11.933Z,0
2023-02-14T01:45:13.231Z,0
2023-02-14T01:46:13.447Z,0
2023-02-14T01:47:13.906Z,0
2023-02-14T01:48:14.596Z,0
2023-02-14T01:49:16.089Z,0
2023-02-14T01:50:16.823Z,0
2023-02-14T01:51:17.009Z,0
2023-02-14T01:52:17.495Z,0
2023-02-14T01:53:17.442Z,0
2023-02-14T01:54:18.392Z,0
2023-02-14T01:55:18.897Z,0
2023-02-14T01:56:18.516Z,0
2023-02-14T01:57:19.881Z,0
2023-02-14T01:58:20.092Z,0
2023-02-14T01:59:20.640Z,0
2023-02-14T02:00:20.704Z,0
2023-02-14T02:01:21.818Z,0
2023-02-14T02:02:22.779Z,0
2023-02-14T02:03:22.839Z,0
2023-02-14T02:04:23.759Z,0
2023-02-14T02:05:24.259Z,0
2023-02-14T02:06:24.162Z,0
2023-02-14T02:07:24.853Z,0
2023-02-14T02:08:25.760Z,0
2023-02-14T02:09:26.963Z,0
2023-02-14T02:10:27.747Z,0
2023-02-14T02:11:28.963Z,0
2023-02-14T02:12:30.952Z,0
2023-02-14T02:13:30.202Z,0
2023-02-14T02:14:30.783Z,0
2023-02-14T02:15:31.012Z,0
2023-02-14T02:16:32.195Z,0
2023-02-14T02:17:32.461Z,0
2023-02-14T02:18:32.384Z,0
2023-02-14T02:19:33.310Z,0
2023-02-14T02:20:33.968Z,0
2023-02-14T02:21:34.446Z,0
2023-02-14T02:22:35.358Z,0
2023-02-14T02:23:35.709Z,0
2023-02-14T02:24:36.910Z,0
2023-02-14T02:25:37.816Z,0
2023-02-14T02:26:39.075Z,0
2023-02-14T02:27:39.057Z,0
2023-02-14T02:28:40.279Z,0
2023-02-14T02:29:39.972Z,0
2023-02-14T02:30:40.959Z,0
2023-02-14T02:31:42.048Z,0
2023-02-14T02:32:41.717Z,0
2023-02-14T02:33:42.349Z,0
2023-02-14T02:34:42.551Z,0
2023-02-14T02:35:43.765Z,0
2023-02-14T02:36:43.953Z,0
2023-02-14T02:37:44.880Z,0
2023-02-14T02:38:45.512Z,0
2023-02-14T02:39:46.132Z,0
2023-02-14T02:40:46.343Z,0
2023-02-14T02:41:46.971Z,0
2023-02-14T02:42:48.229Z,0
2023-02-14T02:43:47.876Z,0
2023-02-14T02:44:49.241Z,0
2023-02-14T02:45:50.656Z,0
2023-02-14T02:46:51.174Z,0
2023-02-14T02:47:51.729Z,0
2023-02-14T02:48:51.920Z,0
2023-02-14T02:49:52.863Z,0
2023-02-14T02:50:54.149Z,0
2023-02-14T02:51:54.507Z,0
2023-02-14T02:52:55.706Z,0
2023-02-14T02:53:56.343Z,0
2023-02-14T02:54:56.535Z,0
2023-02-14T02:55:57.480Z,0
2023-02-14T02:56:58.463Z,0
2023-02-14T02:57:59.186Z,0
2023-02-14T02:58:58.817Z,0
2023-02-14T02:59:59.831Z,0
2023-02-14T03:01:00.229Z,0
2023-02-14T03:02:00.510Z,0
2023-02-14T03:03:00.888Z,0
2023-02-14T03:04:01.238Z,0
2023-02-14T03:05:02.248Z,0
2023-02-14T03:06:03.507Z,0
2023-02-14T03:07:03.428Z,0
2023-02-14T03:08:03.928Z,0
2023-02-14T03:09:04.411Z,0
2023-02-14T03:10:04.350Z,0
2023-02-14T03:11:06.531Z,0
2023-02-14T03:12:06.464Z,0
2023-02-14T03:13:07.025Z,0
2023-02-14T03:14:06.701Z,0
2023-02-14T03:15:07.399Z,0
2023-02-14T03:16:08.168Z,0
2023-02-14T03:17:08.221Z,0
2023-02-14T03:18:08.447Z,0
2023-02-14T03:19:09.651Z,0
2023-02-14T03:20:09.855Z,0
2023-02-14T03:21:10.420Z,0
2023-02-14T03:22:10.362Z,0
2023-02-14T03:23:11.594Z,0
2023-02-14T03:24:11.497Z,0
2023-02-14T03:25:12.005Z,0
2023-02-14T03:26:11.939Z,0
2023-02-14T03:27:12.885Z,0
2023-02-14T03:28:14.129Z,0
2023-02-14T03:29:14.343Z,0
2023-02-14T03:30:14.856Z,0
2023-02-14T03:31:16.144Z,0
2023-02-14T03:32:16.118Z,0
2023-02-14T03:33:16.555Z,0
2023-02-14T03:34:16.186Z,0
2023-02-14T03:35:17.673Z,0
2023-02-14T03:36:17.878Z,0
2023-02-14T03:37:18.783Z,0
2023-02-14T03:38:18.709Z,0
2023-02-14T03:39:19.619Z,0
2023-02-14T03:40:20.557Z,0
2023-02-14T03:41:20.873Z,0
2023-02-14T03:42:21.222Z,0
2023-02-14T03:43:22.253Z,0
2023-02-14T03:44:22.223Z,0
2023-02-14T03:45:23.453Z,0
2023-02-14T03:46:23.441Z,0
2023-02-14T03:47:24.493Z,0
2023-02-14T03:48:24.692Z,0
2023-02-14T03:49:24.899Z,0
2023-02-14T03:50:26.139Z,0
2023-02-14T03:51:26.359Z,0
2023-02-14T03:52:27.653Z,0
2023-02-14T03:53:28.141Z,0
2023-02-14T03:54:28.760Z,0
2023-02-14T03:55:28.691Z,0
2023-02-14T03:56:29.196Z,0
2023-02-14T03:57:29.697Z,0
2023-02-14T03:58:30.035Z,0
2023-02-14T03:59:30.270Z,0
2023-02-14T04:00:30.574Z,0
2023-02-14T04:01:30.780Z,0
2023-02-14T04:02:30.505Z,0
2023-02-14T04:03:32.057Z,0
2023-02-14T04:04:32.055Z,0
2023-02-14T04:05:33.260Z,0
2023-02-14T04:06:33.227Z,0
2023-02-14T04:07:34.489Z,0
2023-02-14T04:08:34.970Z,0
2023-02-14T04:09:35.183Z,0
2023-02-14T04:10:36.390Z,0
2023-02-14T04:11:36.669Z,0
2023-02-14T04:12:48.644Z,0
2023-02-14T04:13:37.933Z,0
2023-02-14T04:14:37.605Z,0
2023-02-14T04:15:38.286Z,0
2023-02-14T04:16:38.820Z,0
2023-02-14T04:17:39.467Z,0
2023-02-14T04:18:39.968Z,0
2023-02-14T04:19:40.168Z,0
2023-02-14T04:20:40.460Z,0
2023-02-14T04:21:40.524Z,0
2023-02-14T04:22:40.723Z,0
2023-02-14T04:23:41.255Z,0
2023-02-14T04:24:41.456Z,0
2023-02-14T04:25:42.120Z,0
2023-02-14T04:26:42.636Z,0
2023-02-14T04:27:42.847Z,0
2023-02-14T04:28:43.394Z,0
2023-02-14T04:29:43.628Z,0
2023-02-14T04:30:44.020Z,0
2023-02-14T04:31:46.030Z,0
2023-02-14T04:32:45.493Z,0
2023-02-14T04:33:46.170Z,0
2023-02-14T04:34:47.378Z,0
2023-02-14T04:35:47.626Z,0
2023-02-14T04:36:48.113Z,0
2023-02-14T04:37:48.610Z,0
2023-02-14T04:38:49.107Z,0
2023-02-14T04:39:49.597Z,0
2023-02-14T04:40:50.085Z,0
2023-02-14T04:41:50.397Z,0
2023-02-14T04:42:51.359Z,0
2023-02-14T04:43:52.047Z,0
2023-02-14T04:44:52.281Z,0
2023-02-14T04:45:52.969Z,0
2023-02-14T04:46:54.148Z,0
2023-02-14T04:47:55.384Z,0
2023-02-14T04:48:55.330Z,0
2023-02-14T04:49:55.963Z,0
2023-02-14T04:50:56.162Z,0
2023-02-14T04:51:56.180Z,0
2023-02-14T04:52:56.821Z,0
2023-02-14T04:53:57.756Z,0
2023-02-14T04:54:57.699Z,0
2023-02-14T04:55:58.922Z,0
2023-02-14T04:56:59.641Z,0
2023-02-14T04:58:00.602Z,0
2023-02-14T04:59:01.596Z,0
2023-02-14T05:00:01.673Z,0
2023-02-14T05:01:02.961Z,0
2023-02-14T05:02:02.650Z,0
2023-02-14T05:03:02.947Z,0
2023-02-14T05:04:03.643Z,0
2023-02-14T05:05:03.869Z,0
2023-02-14T05:06:05.090Z,0
2023-02-14T05:07:06.003Z,0
2023-02-14T05:08:06.202Z,0
2023-02-14T05:09:07.132Z,0
2023-02-14T05:10:08.063Z,0
2023-02-14T05:11:07.994Z,0
2023-02-14T05:12:08.976Z,0
2023-02-14T05:13:10.175Z,0
2023-02-14T05:14:10.413Z,0
2023-02-14T05:15:10.358Z,0
2023-02-14T05:16:11.955Z,0
2023-02-14T05:17:12.600Z,0
2023-02-14T05:18:13.110Z,0
2023-02-14T05:19:13.260Z,0
2023-02-14T05:20:13.917Z,0
2023-02-14T05:21:14.399Z,0
2023-02-14T05:22:14.127Z,0
2023-02-14T05:23:15.082Z,0
2023-02-14T05:24:15.034Z,0
2023-02-14T05:25:16.230Z,0
2023-02-14T05:26:16.439Z,0
2023-02-14T05:27:17.387Z,0
2023-02-14T05:28:17.456Z,0
2023-02-14T05:29:18.999Z,0
2023-02-14T05:30:19.365Z,0
2023-02-14T05:31:20.463Z,0
2023-02-14T05:32:21.585Z,0
2023-02-14T05:33:21.507Z,0
2023-02-14T05:34:22.148Z,0
2023-02-14T05:35:23.356Z,0
2023-02-14T05:36:24.311Z,0
2023-02-14T05:37:25.220Z,0
2023-02-14T05:38:25.418Z,0
2023-02-14T05:39:25.980Z,0
2023-02-14T05:40:26.361Z,0
2023-02-14T05:41:27.599Z,0
2023-02-14T05:42:27.316Z,0
2023-02-14T05:43:27.981Z,0
2023-02-14T05:44:29.597Z,0
2023-02-14T05:45:29.450Z,0
2023-02-14T05:46:30.770Z,0
2023-02-14T05:47:30.692Z,0
2023-02-14T05:48:30.899Z,0
2023-02-14T05:49:31.855Z,0
2023-02-14T05:50:32.515Z,0
2023-02-14T05:51:33.168Z,0
2023-02-14T05:52:34.432Z,0
2023-02-14T05:53:35.370Z,0
2023-02-14T05:54:36.306Z,0
2023-02-14T05:55:36.869Z,4
2023-02-14T05:56:37.359Z,0
2023-02-14T05:57:37.597Z,0
2023-02-14T05:58:38.097Z,4
2023-02-14T05:59:38.369Z,0
2023-02-14T06:00:40.928Z,0
2023-02-14T06:01:39.329Z,4
2023-02-14T06:02:40.119Z,4
2023-02-14T06:03:40.751Z,4
2023-02-14T06:04:41.648Z,8
2023-02-14T06:05:41.340Z,8
2023-02-14T06:06:42.866Z,8
2023-02-14T06:07:43.082Z,12
2023-02-14T06:08:44.023Z,12
2023-02-14T06:09:44.216Z,16
2023-02-14T06:10:44.416Z,16
2023-02-14T06:11:44.770Z,16
2023-02-14T06:12:45.478Z,20
2023-02-14T06:13:46.110Z,20
2023-02-14T06:14:47.652Z,28
2023-02-14T06:15:47.326Z,28
2023-02-14T06:16:48.482Z,36
2023-02-14T06:17:48.764Z,40
2023-02-14T06:18:48.989Z,44
2023-02-14T06:19:48.916Z,48
2023-02-14T06:20:49.831Z,52
2023-02-14T06:21:49.748Z,56
2023-02-14T06:22:50.785Z,64
2023-02-14T06:23:51.392Z,68
2023-02-14T06:24:52.005Z,72
2023-02-14T06:25:52.924Z,80
2023-02-14T06:26:53.848Z,88
2023-02-14T06:27:55.186Z,92
2023-02-14T06:28:54.553Z,100
2023-02-14T06:29:55.746Z,108
2023-02-14T06:30:56.663Z,116
2023-02-14T06:31:57.344Z,120
2023-02-14T06:32:57.524Z,128
2023-02-14T06:33:57.756Z,136
2023-02-14T06:34:58.945Z,144
2023-02-14T06:35:59.172Z,152
2023-02-14T06:36:59.822Z,156
2023-02-14T06:38:00.479Z,164
2023-02-14T06:39:01.401Z,172
2023-02-14T06:40:01.939Z,180
2023-02-14T06:41:06.262Z,188
2023-02-14T06:42:03.281Z,196
2023-02-14T06:43:03.994Z,204
2023-02-14T06:44:03.935Z,212
2023-02-14T06:45:04.519Z,220
2023-02-14T06:46:05.052Z,228
2023-02-14T06:47:06.149Z,236
2023-02-14T06:48:06.101Z,244
2023-02-14T06:49:06.996Z,392
2023-02-14T06:50:08.211Z,1160
2023-02-14T06:51:09.549Z,1584
2023-02-14T06:52:09.492Z,1432
2023-02-14T06:53:10.208Z,1352
2023-02-14T06:54:11.161Z,1460
2023-02-14T06:55:11.392Z,1660
2023-02-14T06:56:12.073Z,1780
2023-02-14T06:57:13.272Z,1920
2023-02-14T06:58:13.769Z,1428
2023-02-14T06:59:13.967Z,1184
2023-02-14T07:00:15.254Z,1352
2023-02-14T07:01:15.484Z,1160
2023-02-14T07:02:16.822Z,836
2023-02-14T07:03:16.983Z,800
2023-02-14T07:04:17.506Z,692
2023-02-14T07:05:17.171Z,688
2023-02-14T07:06:18.717Z,800
2023-02-14T07:07:18.667Z,756
2023-02-14T07:08:19.165Z,912
2023-02-14T07:09:19.484Z,1044
2023-02-14T07:10:20.469Z,852
2023-02-14T07:11:21.122Z,1376
2023-02-14T07:12:22.044Z,1952
2023-02-14T07:13:23.032Z,1600
2023-02-14T07:14:22.970Z,1196
2023-02-14T07:15:24.549Z,992
2023-02-14T07:16:24.771Z,892
2023-02-14T07:17:25.331Z,1136
2023-02-14T07:18:25.251Z,920
2023-02-14T07:19:26.196Z,732
2023-02-14T07:20:26.353Z,744
2023-02-14T07:21:27.060Z,780
2023-02-14T07:22:27.436Z,804
2023-02-14T07:23:27.171Z,932
2023-02-14T07:24:27.398Z,1212
2023-02-14T07:25:27.905Z,1652
2023-02-14T07:26:27.824Z,1828
2023-02-14T07:27:28.456Z,2016
2023-02-14T07:28:29.669Z,2264
2023-02-14T07:29:29.317Z,2388
2023-02-14T07:30:30.746Z,2496
2023-02-14T07:31:32.021Z,2196
2023-02-14T07:32:32.321Z,2072
2023-02-14T07:33:32.338Z,2296
2023-02-14T07:34:33.096Z,2612
2023-02-14T07:35:34.325Z,2676
2023-02-14T07:36:34.245Z,2676
2023-02-14T07:37:35.504Z,2768
2023-02-14T07:38:35.469Z,3056
2023-02-14T07:39:35.434Z,3200
2023-02-14T07:40:36.083Z,3364
2023-02-14T07:41:36.606Z,4076
2023-02-14T07:42:36.805Z,5460
2023-02-14T07:43:37.201Z,6812
2023-02-14T07:44:38.122Z,8048
2023-02-14T07:45:39.403Z,9476
2023-02-14T07:46:39.669Z,10504
2023-02-14T07:47:40.705Z,10584
2023-02-14T07:48:44.480Z,10292
2023-02-14T07:49:41.450Z,9936
2023-02-14T07:50:42.381Z,9288
2023-02-14T07:51:43.503Z,8536
2023-02-14T07:52:43.753Z,8140
2023-02-14T07:53:44.075Z,7528
2023-02-14T07:54:44.040Z,6916
2023-02-14T07:55:44.984Z,7084
2023-02-14T07:56:45.937Z,7400
2023-02-14T07:57:46.598Z,7204
2023-02-14T07:58:47.825Z,7092
2023-02-14T07:59:47.508Z,7692
2023-02-14T08:00:49.069Z,8288
2023-02-14T08:01:49.688Z,7920
2023-02-14T08:02:50.434Z,7284
2023-02-14T08:03:50.512Z,7368
2023-02-14T08:04:51.953Z,7908
2023-02-14T08:05:52.550Z,8064
2023-02-14T08:06:53.210Z,7832
2023-02-14T08:07:54.169Z,7992
2023-02-14T08:08:54.513Z,8336
2023-02-14T08:09:56.021Z,8172
2023-02-14T08:10:56.229Z,7204
2023-02-14T08:11:56.659Z,5908
2023-02-14T08:12:57.869Z,4668
2023-02-14T08:13:58.597Z,3892
2023-02-14T08:14:59.948Z,4312
2023-02-14T08:16:01.257Z,5852
2023-02-14T08:17:01.306Z,7480
2023-02-14T08:18:02.283Z,8404
2023-02-14T08:19:02.209Z,8720
2023-02-14T08:20:02.858Z,8700
2023-02-14T08:21:05.001Z,9068
2023-02-14T08:22:03.959Z,9440
2023-02-14T08:23:04.892Z,9768
2023-02-14T08:24:05.689Z,10568
2023-02-14T08:25:06.334Z,11380
2023-02-14T08:26:07.875Z,11076
2023-02-14T08:27:07.794Z,10900
2023-02-14T08:28:08.170Z,11220
2023-02-14T08:29:08.419Z,10476
2023-02-14T08:30:08.976Z,8076
2023-02-14T08:31:10.802Z,5164
2023-02-14T08:32:09.706Z,3848
2023-02-14T08:33:10.319Z,4452
2023-02-14T08:34:11.106Z,5064
2023-02-14T08:35:11.310Z,4452
2023-02-14T08:36:12.458Z,3240
2023-02-14T08:37:12.561Z,2428
2023-02-14T08:38:13.837Z,2064
2023-02-14T08:39:14.111Z,1956
2023-02-14T08:40:15.323Z,1952
2023-02-14T08:41:18.892Z,3052
2023-02-14T08:42:15.967Z,5468
2023-02-14T08:43:16.910Z,5796
2023-02-14T08:44:17.069Z,5476
2023-02-14T08:45:17.735Z,7864
2023-02-14T08:46:18.582Z,9416
2023-02-14T08:47:18.981Z,7460
2023-02-14T08:48:19.044Z,5824
2023-02-14T08:49:20.566Z,6540
2023-02-14T08:50:20.525Z,7840
2023-02-14T08:51:21.637Z,8264
2023-02-14T08:52:21.622Z,7584
2023-02-14T08:53:21.907Z,9188
2023-02-14T08:54:22.311Z,10460
2023-02-14T08:55:22.301Z,9392
2023-02-14T08:56:23.658Z,7508
2023-02-14T08:57:23.989Z,6480
2023-02-14T08:58:24.106Z,7504
2023-02-14T08:59:24.747Z,6756
2023-02-14T09:00:25.089Z,5996
2023-02-14T09:01:25.903Z,5332
2023-02-14T09:02:26.022Z,5988
2023-02-14T09:03:26.961Z,6652
2023-02-14T09:04:28.183Z,7236
2023-02-14T09:05:28.105Z,7196
2023-02-14T09:06:29.442Z,6008
2023-02-14T09:07:29.124Z,4500
2023-02-14T09:08:30.750Z,5212
2023-02-14T09:09:31.331Z,4944
2023-02-14T09:10:31.429Z,3624
2023-02-14T09:11:32.793Z,2696
2023-02-14T09:12:32.534Z,1964
2023-02-14T09:13:33.198Z,1704
2023-02-14T09:14:37.781Z,1632
2023-02-14T09:15:33.897Z,1784
2023-02-14T09:16:35.694Z,2300
2023-02-14T09:17:36.603Z,3000
2023-02-14T09:18:36.634Z,4204
2023-02-14T09:19:37.636Z,5904
2023-02-14T09:20:38.053Z,7860
2023-02-14T09:21:38.070Z,9272
2023-02-14T09:22:39.456Z,10928
2023-02-14T09:23:39.971Z,11580
2023-02-14T09:24:40.052Z,11328
2023-02-14T09:25:41.106Z,10372
2023-02-14T09:26:41.763Z,9032
2023-02-14T09:27:42.738Z,8428
2023-02-14T09:28:43.976Z,6976
2023-02-14T09:29:43.932Z,7932
2023-02-14T09:30:44.560Z,11620
2023-02-14T09:31:45.147Z,13476
2023-02-14T09:32:45.026Z,13416
2023-02-14T09:33:45.059Z,13612
2023-02-14T09:34:45.377Z,14364
2023-02-14T09:35:46.620Z,14884
2023-02-14T09:36:46.540Z,15036
2023-02-14T09:37:46.771Z,14964
2023-02-14T09:38:47.292Z,14656
2023-02-14T09:39:47.245Z,14432
2023-02-14T09:40:48.472Z,14392
2023-02-14T09:41:48.689Z,13652
2023-02-14T09:42:49.024Z,11372
2023-02-14T09:43:49.267Z,8724
2023-02-14T09:44:49.420Z,9188
2023-02-14T09:45:50.931Z,11880
2023-02-14T09:46:51.317Z,13244
2023-02-14T09:47:51.303Z,13192
2023-02-14T09:48:52.713Z,12988
2023-02-14T09:49:53.259Z,13012
2023-02-14T09:50:53.643Z,12404
2023-02-14T09:51:54.442Z,11332
2023-02-14T09:52:54.986Z,9912
2023-02-14T09:53:55.527Z,7784
2023-02-14T09:54:57.132Z,8692
2023-02-14T09:55:56.440Z,10020
2023-02-14T09:57:02.766Z,9800
2023-02-14T09:57:57.702Z,10076
2023-02-14T09:58:57.921Z,10868
2023-02-14T09:59:58.148Z,10632
2023-02-14T10:00:59.659Z,10028
2023-02-14T10:02:00.773Z,9712
2023-02-14T10:03:01.116Z,9992
2023-02-14T10:04:01.696Z,10496
2023-02-14T10:05:02.248Z,10824
2023-02-14T10:06:02.882Z,10684
2023-02-14T10:07:02.848Z,9548
2023-02-14T10:08:03.113Z,8480
2023-02-14T10:09:04.338Z,9112
2023-02-14T10:10:04.588Z,10472
2023-02-14T10:11:06.129Z,11032
2023-02-14T10:12:06.370Z,11376
2023-02-14T10:13:07.598Z,11452
2023-02-14T10:14:08.107Z,10216
2023-02-14T10:15:08.123Z,9136
2023-02-14T10:16:09.039Z,9040
2023-02-14T10:17:10.647Z,9352
2023-02-14T10:18:10.698Z,9424
2023-02-14T10:19:11.122Z,9596
2023-02-14T10:20:12.064Z,9816
2023-02-14T10:21:14.075Z,10132
2023-02-14T10:22:14.286Z,10452
2023-02-14T10:23:15.229Z,10880
2023-02-14T10:24:15.181Z,11720
2023-02-14T10:25:16.006Z,12084
2023-02-14T10:26:16.951Z,12696
2023-02-14T10:27:21.612Z,13440
2023-02-14T10:28:22.448Z,13740
2023-02-14T10:29:19.386Z,13904
2023-02-14T10:30:20.602Z,13940
2023-02-14T10:31:21.128Z,14088
2023-02-14T10:32:21.919Z,14140
2023-02-14T10:33:22.061Z,14224
2023-02-14T10:34:23.297Z,14276
2023-02-14T10:35:23.369Z,14376
2023-02-14T10:36:23.606Z,14596
2023-02-14T10:37:23.825Z,14668
2023-02-14T10:38:24.035Z,14552
2023-02-14T10:39:24.293Z,14480
2023-02-14T10:40:28.359Z,14348
2023-02-14T10:41:26.288Z,14176
2023-02-14T10:42:27.601Z,14036
2023-02-14T10:43:27.642Z,14268
2023-02-14T10:44:28.974Z,14616
2023-02-14T10:45:28.756Z,14568
2023-02-14T10:46:30.675Z,14508
2023-02-14T10:47:30.906Z,14552
2023-02-14T10:48:31.145Z,14600
2023-02-14T10:49:32.100Z,14720
2023-02-14T10:50:33.335Z,14804
2023-02-14T10:51:34.105Z,14892
2023-02-14T10:52:34.155Z,14960
2023-02-14T10:53:34.396Z,14964
2023-02-14T10:54:34.631Z,14960
2023-02-14T10:55:43.456Z,15032
2023-02-14T10:56:35.734Z,15012
2023-02-14T10:57:37.088Z,14904
2023-02-14T10:58:37.089Z,15008
2023-02-14T10:59:38.048Z,14832
2023-02-14T11:00:39.062Z,14800
2023-02-14T11:01:40.269Z,14956
2023-02-14T11:02:40.400Z,14704
2023-02-14T11:03:43.835Z,14612
2023-02-14T11:04:41.030Z,14340
2023-02-14T11:05:43.805Z,14192
2023-02-14T11:06:43.541Z,14128
2023-02-14T11:07:43.862Z,13872
2023-02-14T11:08:45.133Z,13596
2023-02-14T11:09:45.892Z,13336
2023-02-14T11:10:46.034Z,13088
2023-02-14T11:11:47.004Z,12416
2023-02-14T11:12:47.330Z,11536
2023-02-14T11:13:47.670Z,11008
2023-02-14T11:14:48.081Z,10904
2023-02-14T11:15:49.452Z,10784
2023-02-14T11:16:49.524Z,10840
2023-02-14T11:17:50.252Z,11608
2023-02-14T11:18:50.533Z,12112
2023-02-14T11:19:50.465Z,11972
2023-02-14T11:20:51.390Z,11488
2023-02-14T11:21:52.621Z,11172
2023-02-14T11:22:52.880Z,10580
2023-02-14T11:23:53.825Z,9052
2023-02-14T11:24:54.062Z,7728
2023-02-14T11:25:55.123Z,7648
2023-02-14T11:26:55.751Z,7656
2023-02-14T11:27:57.105Z,7528
2023-02-14T11:28:57.116Z,6760
2023-02-14T11:29:59.067Z,6536
2023-02-14T11:30:59.706Z,9188
2023-02-14T11:31:59.160Z,10388
2023-02-14T11:32:59.954Z,8344
2023-02-14T11:34:00.277Z,5564
2023-02-14T11:35:00.819Z,5856
2023-02-14T11:36:00.974Z,7468
2023-02-14T11:37:01.495Z,7404
2023-02-14T11:38:01.784Z,4980
2023-02-14T11:39:02.000Z,5208
2023-02-14T11:40:03.063Z,9192
2023-02-14T11:41:05.115Z,10484
2023-02-14T11:42:05.367Z,10364
2023-02-14T11:43:20.782Z,10792
2023-02-14T11:44:06.039Z,10936
2023-02-14T11:45:07.291Z,9984
2023-02-14T11:46:08.007Z,6932
2023-02-14T11:47:13.297Z,9020
2023-02-14T11:48:08.028Z,10076
2023-02-14T11:49:07.947Z,6048
2023-02-14T11:50:09.458Z,3668
2023-02-14T11:51:10.097Z,4828
2023-02-14T11:52:10.543Z,6584
2023-02-14T11:53:10.676Z,6520
2023-02-14T11:54:10.637Z,6880
2023-02-14T11:55:11.871Z,6620
2023-02-14T11:56:12.220Z,7548
2023-02-14T11:57:13.406Z,7236
2023-02-14T11:58:13.978Z,4932
2023-02-14T11:59:14.256Z,4712
2023-02-14T12:00:14.882Z,6804
2023-02-14T12:01:14.824Z,7576
2023-02-14T12:02:15.942Z,7356
2023-02-14T12:03:16.044Z,7000
2023-02-14T12:04:17.670Z,6436
2023-02-14T12:05:17.611Z,6000
2023-02-14T12:06:18.071Z,5840
2023-02-14T12:07:18.589Z,5756
2023-02-14T12:08:19.554Z,5472
2023-02-14T12:09:19.498Z,5668
2023-02-14T12:10:20.427Z,6364
2023-02-14T12:11:21.374Z,6852
2023-02-14T12:12:22.312Z,6800
2023-02-14T12:13:22.867Z,6440
2023-02-14T12:14:23.457Z,6608
2023-02-14T12:15:23.694Z,6656
2023-02-14T12:16:23.934Z,6320
2023-02-14T12:17:25.453Z,6276
2023-02-14T12:18:25.393Z,5976
2023-02-14T12:19:26.537Z,6484
2023-02-14T12:20:26.494Z,7680
2023-02-14T12:21:26.282Z,8328
2023-02-14T12:22:28.471Z,8416
2023-02-14T12:23:28.110Z,8892
2023-02-14T12:24:28.057Z,9116
2023-02-14T12:25:28.605Z,8968
2023-02-14T12:26:29.354Z,7888
2023-02-14T12:27:29.556Z,6484
2023-02-14T12:28:30.518Z,6160
2023-02-14T12:29:31.088Z,6856
2023-02-14T12:30:31.830Z,6648
2023-02-14T12:31:32.821Z,5980
2023-02-14T12:32:33.231Z,5488
2023-02-14T12:33:33.696Z,5448
2023-02-14T12:34:34.921Z,5560
2023-02-14T12:35:34.851Z,5532
2023-02-14T12:36:35.903Z,5188
2023-02-14T12:37:37.155Z,5332
2023-02-14T12:38:38.084Z,6460
2023-02-14T12:39:38.302Z,6912
2023-02-14T12:40:39.232Z,7224
2023-02-14T12:41:39.589Z,7660
2023-02-14T12:42:40.579Z,7676
2023-02-14T12:43:40.845Z,7716
2023-02-14T12:58:50.810Z,6304
2023-02-14T12:59:51.061Z,6248
2023-02-14T13:00:52.120Z,6364
2023-02-14T13:01:51.967Z,6576
2023-02-14T13:02:53.141Z,6536
2023-02-14T13:03:53.735Z,6016
2023-02-14T13:04:53.970Z,5904
2023-02-14T13:05:54.526Z,5880
2023-02-14T13:06:54.344Z,5996
2023-02-14T13:07:54.282Z,5972
2023-02-14T13:08:55.503Z,4804
2023-02-14T13:09:57.378Z,4436
2023-02-14T13:10:57.381Z,5036
2023-02-14T13:11:58.229Z,5312
2023-02-14T13:12:59.162Z,5160
2023-02-14T13:13:59.781Z,6008
2023-02-14T13:15:00.322Z,6580
2023-02-14T13:16:02.937Z,6744
2023-02-14T13:17:01.604Z,7072
2023-02-14T13:18:01.265Z,7100
2023-02-14T13:19:02.784Z,6676
2023-02-14T13:20:02.764Z,6404
2023-02-14T13:21:05.086Z,6260
2023-02-14T13:22:05.604Z,6724
2023-02-14T13:23:05.969Z,6516
2023-02-14T13:24:06.706Z,6304
2023-02-14T13:25:07.264Z,6688
2023-02-14T13:26:07.792Z,6692
2023-02-14T13:27:07.745Z,6476
2023-02-14T13:28:07.686Z,6368
2023-02-14T13:29:09.096Z,6540
2023-02-14T13:30:09.833Z,6784
2023-02-14T13:31:12.076Z,6716
2023-02-14T13:32:10.933Z,6676
2023-02-14T13:33:11.267Z,6628
2023-02-14T13:34:11.500Z,6320
2023-02-14T13:35:12.735Z,6056
2023-02-14T13:36:13.619Z,6456
2023-02-14T13:37:13.691Z,6152
2023-02-14T13:38:13.630Z,6276
2023-02-14T13:39:14.273Z,6380
2023-02-14T13:40:15.270Z,6300
2023-02-14T13:41:15.936Z,6508
2023-02-14T13:42:16.155Z,6660
2023-02-14T13:43:16.945Z,6764
2023-02-14T13:44:18.014Z,6792
2023-02-14T13:45:19.932Z,6968
2023-02-14T13:46:19.280Z,7224
2023-02-14T13:47:19.852Z,7176
2023-02-14T13:48:20.449Z,7092
2023-02-14T13:49:20.350Z,6960
2023-02-14T13:50:21.597Z,6828
2023-02-14T13:51:21.868Z,6708
2023-02-14T13:52:23.091Z,6720
2023-02-14T13:53:22.747Z,6708
2023-02-14T13:54:24.270Z,6652
2023-02-14T13:55:24.511Z,6648
2023-02-14T13:56:24.357Z,6544
2023-02-14T13:57:24.953Z,6404
2023-02-14T13:58:24.911Z,6264
2023-02-14T13:59:26.010Z,6116
2023-02-14T14:00:26.806Z,6024
2023-02-14T14:01:27.311Z,5916
2023-02-14T14:02:30.026Z,5840
2023-02-14T14:03:28.969Z,5764
2023-02-14T14:04:29.009Z,5716
2023-02-14T14:05:29.237Z,5608
2023-02-14T14:06:30.195Z,5512
2023-02-14T14:07:30.598Z,5412
2023-02-14T14:08:30.847Z,5300
2023-02-14T14:09:31.809Z,5184
2023-02-14T14:10:32.767Z,5080
2023-02-14T14:11:33.295Z,5068
2023-02-14T14:12:33.588Z,5052
2023-02-14T14:13:33.534Z,4880
2023-02-14T14:14:34.944Z,4736
2023-02-14T14:15:35.463Z,4624